Mar del Tuyu, Argentina
Current Conditions -  °F | °C
As of 11:00 PM on Thursday 18 Dec 2014 (Local Time) from SAZM Reporting Station
Clear Clear  
Wind Chill: 72°   Ceiling: Unl
Heat Index: 72°   Visibility: 6mi
Dew Point: 64°   Wind: 10mph
Humidity: 78%   Direction: 360°N
Pressure: 29.59"   Gusts: NA
Location:  36.55°S, 56.68°W
Report Text: SAZM 190200Z 36009KT CAVOK 22/18 Q1002
Loading
Personal Weather Stations






























Interactive Weather Map New forecast layout! Learn more

10-Day Weather Forecast

Advertisements
Track Severe Weather on mobile